Map

Track Data

SID SEASON NUMBER BASIN SUBBASIN NAME ISO_TIME NATURE LAT LON WMO_WIND WMO_PRES WMO_AGENCY TRACK_TYPE DIST2LAND LANDFALL IFLAG USA_AGENCY USA_ATCF_ID USA_LAT USA_LON USA_RECORD USA_STATUS USA_WIND USA_PRES USA_SSHS USA_R34_NE USA_R34_SE USA_R34_SW USA_R34_NW USA_R50_NE USA_R50_SE USA_R50_SW USA_R50_NW USA_R64_NE USA_R64_SE USA_R64_SW USA_R64_NW USA_POCI USA_ROCI USA_RMW USA_EYE TOKYO_LAT TOKYO_LON TOKYO_GRADE TOKYO_WIND TOKYO_PRES TOKYO_R50_DIR TOKYO_R50_LONG TOKYO_R50_SHORT TOKYO_R30_DIR TOKYO_R30_LONG TOKYO_R30_SHORT TOKYO_LAND CMA_LAT CMA_LON CMA_CAT CMA_WIND CMA_PRES HKO_LAT HKO_LON HKO_CAT HKO_WIND HKO_PRES NEWDELHI_LAT NEWDELHI_LON NEWDELHI_GRADE NEWDELHI_WIND NEWDELHI_PRES NEWDELHI_CI NEWDELHI_DP NEWDELHI_POCI REUNION_LAT REUNION_LON REUNION_TYPE REUNION_WIND REUNION_PRES REUNION_TNUM REUNION_CI REUNION_RMW REUNION_R34_NE REUNION_R34_SE REUNION_R34_SW REUNION_R34_NW REUNION_R50_NE REUNION_R50_SE REUNION_R50_SW REUNION_R50_NW REUNION_R64_NE REUNION_R64_SE REUNION_R64_SW REUNION_R64_NW BOM_LAT BOM_LON BOM_TYPE BOM_WIND BOM_PRES BOM_TNUM BOM_CI BOM_RMW BOM_R34_NE BOM_R34_SE BOM_R34_SW BOM_R34_NW BOM_R50_NE BOM_R50_SE BOM_R50_SW BOM_R50_NW BOM_R64_NE BOM_R64_SE BOM_R64_SW BOM_R64_NW BOM_ROCI BOM_POCI BOM_EYE BOM_POS_METHOD BOM_PRES_METHOD NADI_LAT NADI_LON NADI_CAT NADI_WIND NADI_PRES WELLINGTON_LAT WELLINGTON_LON WELLINGTON_WIND WELLINGTON_PRES DS824_LAT DS824_LON DS824_STAGE DS824_WIND DS824_PRES TD9636_LAT TD9636_LON TD9636_STAGE TD9636_WIND TD9636_PRES TD9635_LAT TD9635_LON TD9635_WIND TD9635_PRES TD9635_ROCI NEUMANN_LAT NEUMANN_LON NEUMANN_CLASS NEUMANN_WIND NEUMANN_PRES MLC_LAT MLC_LON MLC_CLASS MLC_WIND MLC_PRES USA_GUST BOM_GUST BOM_GUST_PER REUNION_GUST REUNION_GUST_PER USA_SEAHGT USA_SEARAD_NE USA_SEARAD_SE USA_SEARAD_SW USA_SEARAD_NW STORM_SPEED STORM_DIR
1956159N34285 1956 44 NA NA NOT_NAMED 1956-06-07 06:00:00 TS 34.0000 -75.1000 35 hurdat_atl main 148 141 O_____________ hurdat_atl AL091956 34.0000 -75.1000 TS 35 0 5 235
1956159N34285 1956 44 NA NA NOT_NAMED 1956-06-07 09:00:00 TS 33.8526 -75.3552 main 134 134 P_____________ AL091956 33.8526 -75.3552 TS 35 0 5 234
1956159N34285 1956 44 NA NA NOT_NAMED 1956-06-07 12:00:00 TS 33.7000 -75.6000 35 1002 hurdat_atl main 138 133 O_____________ hurdat_atl AL091956 33.7000 -75.6000 TS 35 1002 0 5 230
1956159N34285 1956 44 NA NA NOT_NAMED 1956-06-07 15:00:00 TS 33.5300 -75.8224 main 148 144 P_____________ AL091956 33.5300 -75.8224 TS 35 0 5 220
1956159N34285 1956 44 NA NA NOT_NAMED 1956-06-07 18:00:00 TS 33.3000 -76.0000 35 hurdat_atl main 162 162 O_____________ hurdat_atl AL091956 33.3000 -76.0000 TS 35 0 6 205
1956159N34285 1956 44 NA NA NOT_NAMED 1956-06-07 21:00:00 TS 32.9949 -76.1224 main 193 193 P_____________ AL091956 32.9949 -76.1224 TS 35 0 7 193
1956159N34285 1956 44 NA NA NOT_NAMED 1956-06-08 00:00:00 TS 32.6000 -76.2000 35 hurdat_atl main 221 221 O_____________ hurdat_atl AL091956 32.6000 -76.2000 TS 35 0 9 188
1956159N34285 1956 44 NA NA NOT_NAMED 1956-06-08 03:00:00 TS 32.0775 -76.2726 main 255 255 P_____________ AL091956 32.0775 -76.2726 TS 37 0 10 185
1956159N34285 1956 44 NA NA NOT_NAMED 1956-06-08 06:00:00 TS 31.6000 -76.3000 40 hurdat_atl main 301 301 O_____________ hurdat_atl AL091956 31.6000 -76.3000 TS 40 0 8 0
1956159N34285 1956 44 NA NA NOT_NAMED 1956-06-08 09:00:00 TS 31.3099 -76.2873 main 330 330 P_____________ AL091956 31.3099 -76.2873 TS 40 0 4 168
1956159N34285 1956 44 NA NA NOT_NAMED 1956-06-08 12:00:00 TS 31.2000 -76.2000 40 hurdat_atl main 344 344 O_____________ hurdat_atl AL091956 31.2000 -76.2000 TS 40 0 2 106
1956159N34285 1956 44 NA NA NOT_NAMED 1956-06-08 15:00:00 TS 31.2548 -76.0600 main 340 340 P_____________ AL091956 31.2548 -76.0600 TS 40 0 4 60
1956159N34285 1956 44 NA NA NOT_NAMED 1956-06-08 18:00:00 TS 31.4000 -75.8000 40 hurdat_atl main 346 346 O_____________ hurdat_atl AL091956 31.4000 -75.8000 TS 40 0 6 66
1956159N34285 1956 44 NA NA NOT_NAMED 1956-06-08 21:00:00 TS 31.4999 -75.4099 main 361 361 P_____________ AL091956 31.4999 -75.4099 TS 37 0 8 75
1956159N34285 1956 44 NA NA NOT_NAMED 1956-06-09 00:00:00 TS 31.6000 -74.9000 35 hurdat_atl main 376 376 O_____________ hurdat_atl AL091956 31.6000 -74.9000 TS 35 0 9 81
1956159N34285 1956 44 NA NA NOT_NAMED 1956-06-09 03:00:00 TS 31.6476 -74.3140 main 401 391 P_____________ AL091956 31.6476 -74.3140 TS 35 0 10 79
1956159N34285 1956 44 NA NA NOT_NAMED 1956-06-09 06:00:00 TS 31.8000 -73.7000 35 hurdat_atl main 414 412 O_____________ hurdat_atl AL091956 31.8000 -73.7000 TS 35 0 11 62
1956159N34285 1956 44 NA NA NOT_NAMED 1956-06-09 09:00:00 TS 32.1822 -73.1426 main 420 412 P_____________ AL091956 32.1822 -73.1426 TS 32 -1 13 46
1956159N34285 1956 44 NA NA NOT_NAMED 1956-06-09 12:00:00 TS 32.7000 -72.6000 30 hurdat_atl main 420 417 O_____________ hurdat_atl AL091956 32.7000 -72.6000 TD 30 -1 14 40
1956159N34285 1956 44 NA NA NOT_NAMED 1956-06-09 15:00:00 TS 33.2418 -72.0792 main 424 416 P_____________ AL091956 33.2418 -72.0792 TD 30 -1 14 40
1956159N34285 1956 44 NA NA NOT_NAMED 1956-06-09 18:00:00 TS 33.8000 -71.5000 30 hurdat_atl main 427 427 O_____________ hurdat_atl AL091956 33.8000 -71.5000 TD 30 -1 15 45
1956159N34285 1956 44 NA NA NOT_NAMED 1956-06-09 21:00:00 TS 34.3071 -70.8015 main 458 458 P_____________ AL091956 34.3071 -70.8015 TD 30 -1 16 51
1956159N34285 1956 44 NA NA NOT_NAMED 1956-06-10 00:00:00 ET 34.8000 -70.0000 30 hurdat_atl main 510 510 O_____________ hurdat_atl AL091956 34.8000 -70.0000 EX 30 -4 17 55
1956159N34285 1956 44 NA NA NOT_NAMED 1956-06-10 03:00:00 ET 35.2848 -69.1213 main 580 580 P_____________ AL091956 35.2848 -69.1213 EX 30 -4 18 56
1956159N34285 1956 44 NA NA NOT_NAMED 1956-06-10 06:00:00 ET 35.8000 -68.2000 30 hurdat_atl main 656 641 O_____________ hurdat_atl AL091956 35.8000 -68.2000 EX 30 -4 18 53
1956159N34285 1956 44 NA NA NOT_NAMED 1956-06-10 09:00:00 ET 36.3811 -67.2956 main 634 607 P_____________ AL091956 36.3811 -67.2956 EX 30 -4 19 50
1956159N34285 1956 44 NA NA NOT_NAMED 1956-06-10 12:00:00 ET 37.0000 -66.4000 30 hurdat_atl main 607 O_____________ hurdat_atl AL091956 37.0000 -66.4000 EX 30 -4 19 49

About IBTrACS Database

This database is a web-friendly format of International Best Track Archive for Climate Stewardship (IBTrACS), a global best track data archive curated by NOAA dating back to 1842.

Updated: 2021-11-26